EJU653N LFMN-LFRN
Flight info
| Callsign | EJU653N |
|---|---|
| Flight time | 1h 24m |
| Altitude | 36000 |
| Route | BODRU DCT KOTIT UM616 ETREK DCT GERVA DCT PEPAX DCT ENOKI |
| Aircraft | A320/M-SDE2E3FGHIRWXY/LB1 |
Departure
| Time | 2026-04-23 10:10 |
|---|---|
| Airport | Nice-Côte d'Azur Airport (LFMN) |
Arrival
| Time | 2026-04-23 11:35 |
|---|---|
| Airport | Rennes-Saint-Jacques Airport (LFRN) |
| Time | Latitude | Longitude | Altitude | Speed | Heading |
|---|---|---|---|---|---|
| 2026-04-23 09:55 | 43.66171 | 7.20677 | 27 ft | 0 kts | 260° |
| 2026-04-23 09:58 | 43.66172 | 7.20685 | 28 ft | 2 kts | 261° |
| 2026-04-23 09:58 | 43.66174 | 7.20706 | 27 ft | 2 kts | 260° |
| 2026-04-23 09:59 | 43.66177 | 7.20726 | 27 ft | 2 kts | 260° |
| 2026-04-23 09:59 | 43.66179 | 7.20740 | 27 ft | 2 kts | 261° |
| 2026-04-23 09:59 | 43.66184 | 7.20758 | 27 ft | 2 kts | 229° |
| 2026-04-23 09:59 | 43.66195 | 7.20771 | 27 ft | 2 kts | 204° |
| 2026-04-23 10:00 | 43.66211 | 7.20776 | 27 ft | 1 kts | 175° |
| 2026-04-23 10:00 | 43.66218 | 7.20774 | 27 ft | 1 kts | 168° |
| 2026-04-23 10:00 | 43.66220 | 7.20773 | 27 ft | 0 kts | 170° |
| 2026-04-23 10:04 | 43.66206 | 7.20777 | 27 ft | 4 kts | 172° |
| 2026-04-23 10:04 | 43.66167 | 7.20785 | 27 ft | 7 kts | 171° |
| 2026-04-23 10:04 | 43.66101 | 7.20800 | 27 ft | 11 kts | 171° |
| 2026-04-23 10:05 | 43.66014 | 7.20819 | 27 ft | 13 kts | 172° |
| 2026-04-23 10:05 | 43.65923 | 7.20838 | 27 ft | 14 kts | 169° |
| 2026-04-23 10:05 | 43.65823 | 7.20863 | 27 ft | 15 kts | 170° |
| 2026-04-23 10:05 | 43.65717 | 7.20888 | 27 ft | 15 kts | 170° |
| 2026-04-23 10:06 | 43.65608 | 7.20912 | 27 ft | 16 kts | 170° |
| 2026-04-23 10:06 | 43.65494 | 7.20937 | 27 ft | 16 kts | 171° |
| 2026-04-23 10:06 | 43.65377 | 7.20959 | 27 ft | 17 kts | 182° |
| 2026-04-23 10:06 | 43.65281 | 7.20865 | 27 ft | 17 kts | 225° |
| 2026-04-23 10:07 | 43.65194 | 7.20748 | 27 ft | 17 kts | 224° |
| 2026-04-23 10:07 | 43.65109 | 7.20626 | 27 ft | 17 kts | 225° |
| 2026-04-23 10:07 | 43.65020 | 7.20503 | 27 ft | 18 kts | 224° |
| 2026-04-23 10:07 | 43.64933 | 7.20382 | 27 ft | 18 kts | 221° |
| 2026-04-23 10:08 | 43.64840 | 7.20262 | 27 ft | 18 kts | 226° |
| 2026-04-23 10:08 | 43.64769 | 7.20184 | 27 ft | 8 kts | 182° |
| 2026-04-23 10:08 | 43.64713 | 7.20227 | 27 ft | 9 kts | 135° |
| 2026-04-23 10:09 | 43.64703 | 7.20290 | 27 ft | 0 kts | 45° |
| 2026-04-23 10:09 | 43.64761 | 7.20372 | 27 ft | 42 kts | 44° |
| 2026-04-23 10:10 | 43.65113 | 7.20864 | 27 ft | 107 kts | 44° |
| 2026-04-23 10:10 | 43.65753 | 7.21742 | 35 ft | 158 kts | 47° |
| 2026-04-23 10:10 | 43.66501 | 7.22821 | 677 ft | 152 kts | 58° |
| 2026-04-23 10:10 | 43.66720 | 7.24150 | 1272 ft | 149 kts | 107° |
| 2026-04-23 10:11 | 43.66164 | 7.25293 | 1869 ft | 149 kts | 130° |
| 2026-04-23 10:11 | 43.65406 | 7.26321 | 2277 ft | 158 kts | 136° |
| 2026-04-23 10:11 | 43.64545 | 7.27306 | 2707 ft | 167 kts | 135° |
| 2026-04-23 10:11 | 43.63706 | 7.28467 | 3042 ft | 182 kts | 130° |
| 2026-04-23 10:12 | 43.62816 | 7.29812 | 3392 ft | 198 kts | 129° |
| 2026-04-23 10:12 | 43.61784 | 7.31186 | 3772 ft | 216 kts | 145° |
| 2026-04-23 10:12 | 43.60305 | 7.31717 | 4199 ft | 236 kts | 183° |
| 2026-04-23 10:12 | 43.58772 | 7.30946 | 4996 ft | 237 kts | 210° |
| 2026-04-23 10:13 | 43.57422 | 7.29738 | 5756 ft | 237 kts | 212° |
| 2026-04-23 10:13 | 43.56110 | 7.28397 | 6351 ft | 245 kts | 229° |
| 2026-04-23 10:13 | 43.55381 | 7.26313 | 6725 ft | 259 kts | 266° |
| 2026-04-23 10:13 | 43.55661 | 7.23931 | 7121 ft | 269 kts | 300° |
| 2026-04-23 10:14 | 43.56835 | 7.22058 | 7628 ft | 275 kts | 325° |
| 2026-04-23 10:14 | 43.58323 | 7.20567 | 8396 ft | 277 kts | 326° |
| 2026-04-23 10:14 | 43.59809 | 7.19040 | 9187 ft | 280 kts | 324° |
| 2026-04-23 10:14 | 43.61306 | 7.17375 | 9968 ft | 283 kts | 322° |
| 2026-04-23 10:15 | 43.62781 | 7.15618 | 10699 ft | 288 kts | 321° |
| 2026-04-23 10:15 | 43.64268 | 7.13771 | 11120 ft | 303 kts | 320° |
| 2026-04-23 10:15 | 43.65852 | 7.11749 | 11468 ft | 320 kts | 320° |
| 2026-04-23 10:15 | 43.67467 | 7.09649 | 11949 ft | 331 kts | 319° |
| 2026-04-23 10:16 | 43.69081 | 7.07522 | 12619 ft | 335 kts | 319° |
| 2026-04-23 10:16 | 43.70745 | 7.05316 | 13306 ft | 338 kts | 319° |
| 2026-04-23 10:16 | 43.72418 | 7.03092 | 13946 ft | 341 kts | 319° |
| 2026-04-23 10:16 | 43.74117 | 7.00835 | 14576 ft | 345 kts | 319° |
| 2026-04-23 10:17 | 43.75807 | 6.98583 | 15216 ft | 347 kts | 319° |
| 2026-04-23 10:17 | 43.77510 | 6.96313 | 15851 ft | 349 kts | 319° |
| 2026-04-23 10:17 | 43.79219 | 6.94031 | 16468 ft | 352 kts | 319° |
| 2026-04-23 10:17 | 43.80953 | 6.91711 | 17077 ft | 354 kts | 319° |
| 2026-04-23 10:18 | 43.82592 | 6.89516 | 17631 ft | 356 kts | 319° |
| 2026-04-23 10:18 | 43.84323 | 6.87199 | 18187 ft | 359 kts | 319° |
| 2026-04-23 10:18 | 43.86107 | 6.84810 | 18763 ft | 361 kts | 319° |
| 2026-04-23 10:18 | 43.87875 | 6.82436 | 19299 ft | 363 kts | 318° |
| 2026-04-23 10:19 | 43.89677 | 6.80016 | 19857 ft | 365 kts | 318° |
| 2026-04-23 10:19 | 43.91444 | 6.77638 | 20391 ft | 366 kts | 319° |
| 2026-04-23 10:19 | 43.93269 | 6.75183 | 20962 ft | 367 kts | 318° |
| 2026-04-23 10:19 | 43.95068 | 6.72763 | 21491 ft | 368 kts | 318° |
| 2026-04-23 10:20 | 43.96878 | 6.70324 | 21985 ft | 370 kts | 318° |
| 2026-04-23 10:20 | 43.98680 | 6.67889 | 22467 ft | 372 kts | 318° |
| 2026-04-23 10:20 | 44.00520 | 6.65405 | 22949 ft | 373 kts | 318° |
| 2026-04-23 10:20 | 44.02349 | 6.62932 | 23428 ft | 374 kts | 318° |
| 2026-04-23 10:21 | 44.04159 | 6.60482 | 23929 ft | 375 kts | 318° |
| 2026-04-23 10:21 | 44.05948 | 6.58059 | 24378 ft | 376 kts | 319° |
| 2026-04-23 10:21 | 44.07809 | 6.55535 | 24824 ft | 377 kts | 319° |
| 2026-04-23 10:21 | 44.09684 | 6.52991 | 25223 ft | 379 kts | 319° |
| 2026-04-23 10:22 | 44.11487 | 6.50545 | 25606 ft | 381 kts | 318° |
| 2026-04-23 10:22 | 44.13341 | 6.48024 | 26028 ft | 382 kts | 319° |
| 2026-04-23 10:22 | 44.15202 | 6.45492 | 26440 ft | 383 kts | 318° |
| 2026-04-23 10:22 | 44.17007 | 6.43033 | 26853 ft | 383 kts | 318° |
| 2026-04-23 10:23 | 44.18876 | 6.40485 | 27241 ft | 384 kts | 318° |
| 2026-04-23 10:23 | 44.20701 | 6.37850 | 27587 ft | 387 kts | 315° |
| 2026-04-23 10:23 | 44.22425 | 6.35073 | 27957 ft | 389 kts | 313° |
| 2026-04-23 10:23 | 44.24049 | 6.32298 | 28304 ft | 390 kts | 311° |
| 2026-04-23 10:24 | 44.25720 | 6.29413 | 28618 ft | 391 kts | 311° |
| 2026-04-23 10:24 | 44.27383 | 6.26535 | 28965 ft | 392 kts | 311° |
| 2026-04-23 10:24 | 44.29050 | 6.23647 | 29303 ft | 393 kts | 311° |
| 2026-04-23 10:24 | 44.30719 | 6.20752 | 29605 ft | 394 kts | 311° |
| 2026-04-23 10:25 | 44.32395 | 6.17842 | 29906 ft | 395 kts | 311° |
| 2026-04-23 10:25 | 44.34064 | 6.14946 | 30205 ft | 396 kts | 311° |
| 2026-04-23 10:25 | 44.35757 | 6.12005 | 30491 ft | 397 kts | 311° |
| 2026-04-23 10:25 | 44.37443 | 6.09073 | 30754 ft | 398 kts | 311° |
| 2026-04-23 10:26 | 44.39143 | 6.06110 | 30977 ft | 400 kts | 311° |
| 2026-04-23 10:26 | 44.40850 | 6.03134 | 31186 ft | 402 kts | 311° |
| 2026-04-23 10:26 | 44.42542 | 6.00185 | 31421 ft | 403 kts | 311° |
| 2026-04-23 10:26 | 44.44266 | 5.97169 | 31656 ft | 403 kts | 311° |
| 2026-04-23 10:27 | 44.45985 | 5.94165 | 31894 ft | 404 kts | 311° |
| 2026-04-23 10:27 | 44.47686 | 5.91188 | 32168 ft | 403 kts | 311° |
| 2026-04-23 10:27 | 44.49330 | 5.88305 | 32416 ft | 403 kts | 311° |
| 2026-04-23 10:27 | 44.51024 | 5.85332 | 32688 ft | 402 kts | 311° |
| 2026-04-23 10:28 | 44.52736 | 5.82324 | 32947 ft | 401 kts | 311° |
| 2026-04-23 10:28 | 44.54416 | 5.79369 | 33169 ft | 401 kts | 310° |
| 2026-04-23 10:28 | 44.56114 | 5.76380 | 33402 ft | 401 kts | 310° |
| 2026-04-23 10:28 | 44.57788 | 5.73430 | 33638 ft | 400 kts | 310° |
| 2026-04-23 10:29 | 44.59479 | 5.70445 | 33881 ft | 399 kts | 311° |
| 2026-04-23 10:29 | 44.61165 | 5.67470 | 34118 ft | 399 kts | 310° |
| 2026-04-23 10:29 | 44.62838 | 5.64520 | 34330 ft | 399 kts | 311° |
| 2026-04-23 10:29 | 44.64512 | 5.61560 | 34488 ft | 399 kts | 310° |
| 2026-04-23 10:30 | 44.66210 | 5.58556 | 34615 ft | 401 kts | 311° |
| 2026-04-23 10:30 | 44.67909 | 5.55545 | 34749 ft | 401 kts | 310° |
| 2026-04-23 10:30 | 44.69582 | 5.52581 | 34884 ft | 402 kts | 310° |
| 2026-04-23 10:30 | 44.71283 | 5.49556 | 34990 ft | 404 kts | 310° |
| 2026-04-23 10:31 | 44.72990 | 5.46523 | 35117 ft | 404 kts | 310° |
| 2026-04-23 10:31 | 44.74693 | 5.43490 | 35267 ft | 404 kts | 310° |
| 2026-04-23 10:31 | 44.76374 | 5.40493 | 35388 ft | 405 kts | 310° |
| 2026-04-23 10:31 | 44.78088 | 5.37436 | 35494 ft | 406 kts | 310° |
| 2026-04-23 10:32 | 44.81471 | 5.31389 | 35693 ft | 408 kts | 310° |
| 2026-04-23 10:32 | 44.83159 | 5.28371 | 35814 ft | 408 kts | 310° |
| 2026-04-23 10:32 | 44.84870 | 5.25301 | 35944 ft | 408 kts | 310° |
| 2026-04-23 10:33 | 44.88287 | 5.19172 | 36102 ft | 410 kts | 310° |
| 2026-04-23 10:33 | 44.91707 | 5.13020 | 36262 ft | 413 kts | 310° |
| 2026-04-23 10:34 | 44.95148 | 5.06819 | 36268 ft | 413 kts | 310° |
| 2026-04-23 10:34 | 44.98575 | 5.00626 | 36269 ft | 412 kts | 310° |
| 2026-04-23 10:35 | 45.01975 | 4.94468 | 36271 ft | 413 kts | 310° |
| 2026-04-23 10:35 | 45.05409 | 4.88237 | 36264 ft | 412 kts | 310° |
| 2026-04-23 10:36 | 45.08825 | 4.82025 | 36263 ft | 412 kts | 310° |
| 2026-04-23 10:36 | 45.12197 | 4.75881 | 36256 ft | 412 kts | 310° |
| 2026-04-23 10:37 | 45.15577 | 4.69706 | 36259 ft | 412 kts | 310° |
| 2026-04-23 10:37 | 45.18949 | 4.63527 | 36249 ft | 411 kts | 309° |
| 2026-04-23 10:38 | 45.22239 | 4.57114 | 36247 ft | 413 kts | 308° |
| 2026-04-23 10:38 | 45.25456 | 4.50729 | 36241 ft | 412 kts | 308° |
| 2026-04-23 10:39 | 45.28641 | 4.44412 | 36245 ft | 412 kts | 308° |
| 2026-04-23 10:39 | 45.31869 | 4.38002 | 36244 ft | 414 kts | 308° |
| 2026-04-23 10:40 | 45.35124 | 4.31534 | 36253 ft | 413 kts | 307° |
| 2026-04-23 10:40 | 45.38356 | 4.25097 | 36256 ft | 412 kts | 307° |
| 2026-04-23 10:41 | 45.41627 | 4.18571 | 36261 ft | 412 kts | 307° |
| 2026-04-23 10:41 | 45.44846 | 4.12129 | 36247 ft | 411 kts | 307° |
| 2026-04-23 10:42 | 45.47900 | 4.06009 | 36259 ft | 411 kts | 307° |
| 2026-04-23 10:42 | 45.51173 | 3.99436 | 36247 ft | 410 kts | 307° |
| 2026-04-23 10:43 | 45.54394 | 3.92951 | 36245 ft | 410 kts | 307° |
| 2026-04-23 10:43 | 45.57607 | 3.86465 | 36231 ft | 412 kts | 307° |
| 2026-04-23 10:44 | 45.60768 | 3.80069 | 36242 ft | 411 kts | 307° |
| 2026-04-23 10:44 | 45.63958 | 3.73601 | 36244 ft | 412 kts | 307° |
| 2026-04-23 10:45 | 45.67194 | 3.67025 | 36229 ft | 411 kts | 307° |
| 2026-04-23 10:45 | 45.70437 | 3.60422 | 36230 ft | 411 kts | 307° |
| 2026-04-23 10:46 | 45.73682 | 3.53794 | 36240 ft | 411 kts | 307° |
| 2026-04-23 10:46 | 45.76924 | 3.47157 | 36237 ft | 411 kts | 307° |
| 2026-04-23 10:47 | 45.80097 | 3.40651 | 36242 ft | 411 kts | 307° |
| 2026-04-23 10:47 | 45.83293 | 3.34082 | 36242 ft | 411 kts | 307° |
| 2026-04-23 10:48 | 45.86507 | 3.27452 | 36239 ft | 411 kts | 307° |
| 2026-04-23 10:48 | 45.89724 | 3.20809 | 36238 ft | 411 kts | 307° |
| 2026-04-23 10:49 | 45.92913 | 3.14206 | 36238 ft | 411 kts | 307° |
| 2026-04-23 10:49 | 45.96132 | 3.07521 | 36233 ft | 411 kts | 307° |
| 2026-04-23 10:50 | 45.99322 | 3.00887 | 36231 ft | 410 kts | 307° |
| 2026-04-23 10:50 | 46.02519 | 2.94210 | 36232 ft | 410 kts | 307° |
| 2026-04-23 10:51 | 46.05627 | 2.87697 | 36219 ft | 409 kts | 306° |
| 2026-04-23 10:51 | 46.08648 | 2.80918 | 36221 ft | 409 kts | 305° |
| 2026-04-23 10:52 | 46.11541 | 2.74340 | 36230 ft | 410 kts | 305° |
| 2026-04-23 10:52 | 46.14560 | 2.67455 | 36220 ft | 410 kts | 304° |
| 2026-04-23 10:53 | 46.17568 | 2.60581 | 36227 ft | 410 kts | 305° |
| 2026-04-23 10:53 | 46.20569 | 2.53707 | 36233 ft | 410 kts | 305° |
| 2026-04-23 10:54 | 46.23575 | 2.46806 | 36220 ft | 411 kts | 305° |
| 2026-04-23 10:54 | 46.26587 | 2.39876 | 36219 ft | 411 kts | 305° |
| 2026-04-23 10:55 | 46.29541 | 2.33059 | 36193 ft | 410 kts | 304° |
| 2026-04-23 10:55 | 46.32516 | 2.26178 | 36216 ft | 410 kts | 304° |
| 2026-04-23 10:56 | 46.33994 | 2.22752 | 36564 ft | 411 kts | 304° |
| 2026-04-23 10:56 | 46.35497 | 2.19267 | 36469 ft | 409 kts | 304° |
| 2026-04-23 10:56 | 46.36973 | 2.15840 | 36338 ft | 409 kts | 304° |
| 2026-04-23 10:56 | 46.38450 | 2.12408 | 36254 ft | 407 kts | 304° |
| 2026-04-23 10:57 | 46.41401 | 2.05530 | 36221 ft | 407 kts | 304° |
| 2026-04-23 10:57 | 46.44319 | 1.98715 | 36219 ft | 407 kts | 304° |
| 2026-04-23 10:58 | 46.47237 | 1.91878 | 36215 ft | 406 kts | 304° |
| 2026-04-23 10:58 | 46.50187 | 1.84961 | 36221 ft | 408 kts | 304° |
| 2026-04-23 10:59 | 46.53102 | 1.78101 | 36213 ft | 407 kts | 304° |
| 2026-04-23 10:59 | 46.56019 | 1.71217 | 36219 ft | 408 kts | 304° |
| 2026-04-23 11:00 | 46.58952 | 1.64283 | 36212 ft | 408 kts | 304° |
| 2026-04-23 11:00 | 46.61861 | 1.57383 | 36220 ft | 409 kts | 304° |
| 2026-04-23 11:01 | 46.64755 | 1.50509 | 36224 ft | 408 kts | 304° |
| 2026-04-23 11:01 | 46.67665 | 1.43573 | 36221 ft | 408 kts | 304° |
| 2026-04-23 11:02 | 46.70581 | 1.36604 | 36223 ft | 408 kts | 304° |
| 2026-04-23 11:02 | 46.73459 | 1.29713 | 36219 ft | 408 kts | 303° |
| 2026-04-23 11:03 | 46.76305 | 1.22880 | 36225 ft | 408 kts | 303° |
| 2026-04-23 11:03 | 46.79198 | 1.15918 | 36234 ft | 407 kts | 303° |
| 2026-04-23 11:04 | 46.82091 | 1.08933 | 36236 ft | 407 kts | 303° |
| 2026-04-23 11:04 | 46.84981 | 1.01941 | 36228 ft | 407 kts | 303° |
| 2026-04-23 11:05 | 46.87874 | 0.94925 | 36228 ft | 408 kts | 303° |
| 2026-04-23 11:05 | 46.90761 | 0.87902 | 36222 ft | 407 kts | 303° |
| 2026-04-23 11:06 | 46.95078 | 0.77372 | 36218 ft | 408 kts | 303° |
| 2026-04-23 11:07 | 46.97954 | 0.70327 | 36213 ft | 408 kts | 303° |
| 2026-04-23 11:07 | 47.00816 | 0.63308 | 36210 ft | 409 kts | 303° |
| 2026-04-23 11:08 | 47.03661 | 0.56305 | 36213 ft | 409 kts | 303° |
| 2026-04-23 11:08 | 47.06502 | 0.49290 | 36218 ft | 409 kts | 303° |
| 2026-04-23 11:09 | 47.09285 | 0.42381 | 36221 ft | 410 kts | 303° |
| 2026-04-23 11:09 | 47.12027 | 0.35436 | 36217 ft | 411 kts | 302° |
| 2026-04-23 11:10 | 47.14782 | 0.28428 | 36216 ft | 412 kts | 302° |
| 2026-04-23 11:10 | 47.17557 | 0.21358 | 36220 ft | 412 kts | 302° |
| 2026-04-23 11:11 | 47.20297 | 0.14360 | 36182 ft | 410 kts | 302° |
| 2026-04-23 11:11 | 47.21663 | 0.10860 | 35763 ft | 409 kts | 302° |
| 2026-04-23 11:11 | 47.23025 | 0.07373 | 34904 ft | 412 kts | 302° |
| 2026-04-23 11:11 | 47.24398 | 0.03855 | 33905 ft | 417 kts | 302° |
| 2026-04-23 11:12 | 47.25772 | 0.00331 | 32967 ft | 421 kts | 302° |
| 2026-04-23 11:12 | 47.27185 | -0.03303 | 31992 ft | 425 kts | 302° |
| 2026-04-23 11:12 | 47.28595 | -0.06932 | 31030 ft | 428 kts | 302° |
| 2026-04-23 11:12 | 47.29996 | -0.10545 | 30418 ft | 423 kts | 302° |
| 2026-04-23 11:13 | 47.31334 | -0.14005 | 29894 ft | 417 kts | 302° |
| 2026-04-23 11:13 | 47.32670 | -0.17462 | 29367 ft | 412 kts | 302° |
| 2026-04-23 11:13 | 47.34044 | -0.21022 | 28828 ft | 407 kts | 302° |
| 2026-04-23 11:13 | 47.35360 | -0.24433 | 28305 ft | 403 kts | 302° |
| 2026-04-23 11:14 | 47.36667 | -0.27826 | 27790 ft | 399 kts | 302° |
| 2026-04-23 11:14 | 47.38009 | -0.31316 | 27267 ft | 394 kts | 302° |
| 2026-04-23 11:14 | 47.39286 | -0.34641 | 26763 ft | 391 kts | 302° |
| 2026-04-23 11:14 | 47.40593 | -0.38042 | 26246 ft | 387 kts | 302° |
| 2026-04-23 11:15 | 47.41874 | -0.41382 | 25740 ft | 384 kts | 302° |
| 2026-04-23 11:15 | 47.43042 | -0.44429 | 25267 ft | 382 kts | 302° |
| 2026-04-23 11:15 | 47.45856 | -0.51794 | 24143 ft | 376 kts | 302° |
| 2026-04-23 11:16 | 47.47136 | -0.55150 | 23631 ft | 374 kts | 302° |
| 2026-04-23 11:16 | 47.48392 | -0.58446 | 23123 ft | 372 kts | 302° |
| 2026-04-23 11:16 | 47.49631 | -0.61700 | 22637 ft | 370 kts | 302° |
| 2026-04-23 11:16 | 47.50892 | -0.65018 | 22133 ft | 368 kts | 301° |
| 2026-04-23 11:17 | 47.52131 | -0.68283 | 21644 ft | 367 kts | 302° |
| 2026-04-23 11:17 | 47.53371 | -0.71559 | 21149 ft | 365 kts | 302° |
| 2026-04-23 11:17 | 47.54611 | -0.74828 | 20647 ft | 364 kts | 301° |
| 2026-04-23 11:17 | 47.55837 | -0.78070 | 20150 ft | 363 kts | 302° |
| 2026-04-23 11:18 | 47.57076 | -0.81349 | 19661 ft | 362 kts | 302° |
| 2026-04-23 11:18 | 47.58295 | -0.84581 | 19175 ft | 361 kts | 302° |
| 2026-04-23 11:18 | 47.59516 | -0.87819 | 18679 ft | 360 kts | 302° |
| 2026-04-23 11:18 | 47.60705 | -0.90975 | 18201 ft | 359 kts | 302° |
| 2026-04-23 11:19 | 47.61917 | -0.94198 | 17710 ft | 358 kts | 302° |
| 2026-04-23 11:19 | 47.63136 | -0.97440 | 17213 ft | 357 kts | 301° |
| 2026-04-23 11:19 | 47.64329 | -1.00620 | 16722 ft | 357 kts | 301° |
| 2026-04-23 11:19 | 47.65513 | -1.03782 | 16245 ft | 357 kts | 301° |
| 2026-04-23 11:20 | 47.66720 | -1.07008 | 15768 ft | 356 kts | 301° |
| 2026-04-23 11:20 | 47.67921 | -1.10220 | 15292 ft | 356 kts | 301° |
| 2026-04-23 11:20 | 47.69105 | -1.13393 | 14819 ft | 356 kts | 301° |
| 2026-04-23 11:20 | 47.70297 | -1.16590 | 14336 ft | 356 kts | 301° |
| 2026-04-23 11:21 | 47.71493 | -1.19802 | 13851 ft | 355 kts | 301° |
| 2026-04-23 11:21 | 47.72691 | -1.23025 | 13367 ft | 355 kts | 301° |
| 2026-04-23 11:21 | 47.73876 | -1.26221 | 12876 ft | 355 kts | 301° |
| 2026-04-23 11:21 | 47.75058 | -1.29411 | 12383 ft | 354 kts | 301° |
| 2026-04-23 11:22 | 47.76230 | -1.32575 | 11895 ft | 354 kts | 301° |
| 2026-04-23 11:22 | 47.77401 | -1.35742 | 11399 ft | 353 kts | 301° |
| 2026-04-23 11:22 | 47.78560 | -1.38881 | 10911 ft | 352 kts | 301° |
| 2026-04-23 11:22 | 47.79710 | -1.41970 | 10606 ft | 344 kts | 302° |
| 2026-04-23 11:23 | 47.80903 | -1.44948 | 10451 ft | 331 kts | 303° |
| 2026-04-23 11:23 | 47.82069 | -1.47800 | 10313 ft | 319 kts | 303° |
| 2026-04-23 11:23 | 47.83164 | -1.50473 | 10153 ft | 310 kts | 304° |
| 2026-04-23 11:23 | 47.84278 | -1.53192 | 9782 ft | 308 kts | 304° |
| 2026-04-23 11:24 | 47.85381 | -1.55887 | 9418 ft | 307 kts | 304° |
| 2026-04-23 11:24 | 47.86467 | -1.58550 | 9066 ft | 305 kts | 304° |
| 2026-04-23 11:24 | 47.87549 | -1.61208 | 8716 ft | 304 kts | 303° |
| 2026-04-23 11:24 | 47.88631 | -1.63870 | 8370 ft | 302 kts | 303° |
| 2026-04-23 11:25 | 47.89702 | -1.66506 | 8023 ft | 301 kts | 302° |
| 2026-04-23 11:25 | 47.90763 | -1.69125 | 7689 ft | 299 kts | 302° |
| 2026-04-23 11:25 | 47.91829 | -1.71760 | 7355 ft | 298 kts | 302° |
| 2026-04-23 11:25 | 47.92884 | -1.74368 | 7017 ft | 296 kts | 302° |
| 2026-04-23 11:26 | 47.93927 | -1.76952 | 6688 ft | 294 kts | 302° |
| 2026-04-23 11:26 | 47.94967 | -1.79527 | 6361 ft | 292 kts | 302° |
| 2026-04-23 11:26 | 47.95983 | -1.82048 | 6028 ft | 291 kts | 302° |
| 2026-04-23 11:26 | 47.96966 | -1.84495 | 5717 ft | 289 kts | 302° |
| 2026-04-23 11:27 | 47.97987 | -1.87034 | 5392 ft | 288 kts | 302° |
| 2026-04-23 11:27 | 47.99014 | -1.89590 | 5073 ft | 286 kts | 302° |
| 2026-04-23 11:27 | 47.99985 | -1.92136 | 4748 ft | 285 kts | 295° |
| 2026-04-23 11:27 | 48.00645 | -1.94929 | 4424 ft | 284 kts | 283° |
| 2026-04-23 11:28 | 48.01032 | -1.97778 | 4117 ft | 282 kts | 279° |
| 2026-04-23 11:28 | 48.01582 | -2.00529 | 3958 ft | 273 kts | 304° |
| 2026-04-23 11:28 | 48.02889 | -2.02343 | 3885 ft | 250 kts | 343° |
| 2026-04-23 11:28 | 48.04464 | -2.02640 | 3737 ft | 223 kts | 20° |
| 2026-04-23 11:29 | 48.05942 | -2.01995 | 3622 ft | 219 kts | 27° |
| 2026-04-23 11:29 | 48.07377 | -2.01313 | 3490 ft | 218 kts | 25° |
| 2026-04-23 11:29 | 48.08797 | -2.00745 | 3355 ft | 211 kts | 24° |
| 2026-04-23 11:29 | 48.10029 | -1.99809 | 3199 ft | 185 kts | 60° |
| 2026-04-23 11:30 | 48.10403 | -1.98181 | 3172 ft | 160 kts | 94° |
| 2026-04-23 11:30 | 48.10212 | -1.96624 | 3035 ft | 148 kts | 104° |
| 2026-04-23 11:30 | 48.09993 | -1.95173 | 2887 ft | 137 kts | 104° |
| 2026-04-23 11:30 | 48.09800 | -1.93828 | 2699 ft | 131 kts | 102° |
| 2026-04-23 11:31 | 48.09621 | -1.92535 | 2464 ft | 125 kts | 101° |
| 2026-04-23 11:31 | 48.09457 | -1.91274 | 2318 ft | 124 kts | 101° |
| 2026-04-23 11:31 | 48.09293 | -1.90013 | 2149 ft | 125 kts | 101° |
| 2026-04-23 11:31 | 48.09130 | -1.88754 | 1967 ft | 124 kts | 100° |
| 2026-04-23 11:32 | 48.08969 | -1.87483 | 1796 ft | 124 kts | 100° |
| 2026-04-23 11:32 | 48.08815 | -1.86221 | 1632 ft | 124 kts | 101° |
| 2026-04-23 11:32 | 48.08657 | -1.84984 | 1470 ft | 123 kts | 99° |
| 2026-04-23 11:32 | 48.08498 | -1.83740 | 1305 ft | 123 kts | 99° |
| 2026-04-23 11:33 | 48.08345 | -1.82477 | 1147 ft | 123 kts | 101° |
| 2026-04-23 11:33 | 48.08190 | -1.81241 | 987 ft | 123 kts | 99° |
| 2026-04-23 11:33 | 48.08034 | -1.79982 | 825 ft | 122 kts | 100° |
| 2026-04-23 11:33 | 48.07880 | -1.78758 | 669 ft | 122 kts | 102° |
| 2026-04-23 11:34 | 48.07726 | -1.77514 | 510 ft | 122 kts | 102° |
| 2026-04-23 11:34 | 48.07576 | -1.76278 | 343 ft | 121 kts | 101° |
| 2026-04-23 11:34 | 48.07417 | -1.75065 | 171 ft | 120 kts | 98° |
| 2026-04-23 11:34 | 48.07281 | -1.73871 | 108 ft | 110 kts | 98° |
| 2026-04-23 11:35 | 48.07167 | -1.73015 | 128 ft | 64 kts | 100° |
| 2026-04-23 11:35 | 48.07114 | -1.72614 | 130 ft | 23 kts | 99° |
| 2026-04-23 11:35 | 48.07093 | -1.72431 | 131 ft | 11 kts | 101° |
| 2026-04-23 11:35 | 48.07058 | -1.72385 | 131 ft | 4 kts | 183° |
| 2026-04-23 11:36 | 48.07021 | -1.72409 | 130 ft | 3 kts | 208° |
| 2026-04-23 11:36 | 48.06987 | -1.72435 | 129 ft | 7 kts | 207° |
| 2026-04-23 11:36 | 48.06955 | -1.72466 | 128 ft | 3 kts | 242° |
| 2026-04-23 11:36 | 48.06951 | -1.72504 | 128 ft | 1 kts | 252° |
| 2026-04-23 11:37 | 48.06937 | -1.72523 | 128 ft | 2 kts | 195° |
| 2026-04-23 11:37 | 48.06916 | -1.72534 | 128 ft | 3 kts | 212° |
| 2026-04-23 11:37 | 48.06897 | -1.72561 | 128 ft | 3 kts | 224° |
| 2026-04-23 11:37 | 48.06892 | -1.72568 | 128 ft | 0 kts | 223° |